Time;durP1;ratioP1;P1;durP2;ratioP2;P2;SDS_P1;SDS_P2;PMS_P1;PMS_P2;Temp;Humidity;BMP_temperature;BMP_pressure;BME280_temperature;BME280_humidity;BME280_pressure;Samples;Min_cycle;Max_cycle;Signal;HPM_P1;HPM_P2
2023/01/25 00:01:39;0.00;0.00;0.62;0.00;0.00;0.62;2.00;1.30;;;21.30;24.40;;;;;;2255649;61;20428;-62
2023/01/25 00:04:24;0.00;0.00;0.62;0.00;0.00;0.62;1.77;1.37;;;21.30;24.40;;;;;;2255345;61;20357;-58
2023/01/25 00:07:09;0.00;0.00;0.62;0.00;0.00;0.62;1.50;1.10;;;21.30;24.40;;;;;;2255671;61;20976;-61
2023/01/25 00:09:54;0.00;0.00;0.62;0.00;0.00;0.62;1.60;1.20;;;21.30;24.40;;;;;;2258505;61;20883;-63
2023/01/25 00:12:40;0.00;0.00;0.62;0.00;0.00;0.62;1.80;1.20;;;21.30;24.40;;;;;;2258367;61;20384;-61
2023/01/25 00:15:25;0.00;0.00;0.62;0.00;0.00;0.62;1.70;1.10;;;21.30;24.40;;;;;;2259214;61;20407;-63
2023/01/25 00:18:10;0.00;0.00;0.62;0.00;0.00;0.62;1.90;1.33;;;21.30;24.40;;;;;;2258775;61;20496;-59
2023/01/25 00:20:54;0.00;0.00;0.62;0.00;0.00;0.62;1.70;1.20;;;21.30;24.40;;;;;;2258482;61;20369;-62
2023/01/25 00:23:39;0.00;0.00;0.62;0.00;0.00;0.62;1.50;1.10;;;21.20;24.30;;;;;;2280915;58;20380;-59
2023/01/25 00:26:24;0.00;0.00;0.62;0.00;0.00;0.62;1.80;1.17;;;21.30;24.40;;;;;;2255220;61;20465;-63
2023/01/25 00:29:12;0.00;0.00;0.62;0.00;0.00;0.62;1.50;1.00;;;21.30;24.40;;;;;;2258755;61;20415;-59
2023/01/25 00:32:31;0.00;0.00;0.62;0.00;0.00;0.62;1.80;1.10;;;21.30;24.40;;;;;;2255229;61;20407;-59
2023/01/25 00:35:15;0.00;0.00;0.62;0.00;0.00;0.62;1.50;0.90;;;21.30;24.40;;;;;;2258388;61;20955;-59
2023/01/25 00:38:05;0.00;0.00;0.62;0.00;0.00;0.62;1.90;1.17;;;21.30;24.40;;;;;;2254944;61;20916;-57
2023/01/25 00:40:49;0.00;0.00;0.62;0.00;0.00;0.62;1.63;1.00;;;21.20;24.40;;;;;;2259094;61;20840;-61
2023/01/25 00:43:34;0.00;0.00;0.62;0.00;0.00;0.62;1.90;1.20;;;21.20;24.40;;;;;;2255541;61;20448;-61
2023/01/25 00:46:20;0.00;0.00;0.62;0.00;0.00;0.62;2.53;1.37;;;21.20;24.60;;;;;;2258182;61;20444;-62
2023/01/25 00:49:05;0.00;0.00;0.62;0.00;0.00;0.62;1.60;1.10;;;21.20;24.40;;;;;;2255125;61;20404;-61
2023/01/25 00:51:52;0.00;0.00;0.62;0.00;0.00;0.62;1.50;1.00;;;21.20;24.50;;;;;;2255744;61;20408;-58
2023/01/25 00:54:38;0.00;0.00;0.62;0.00;0.00;0.62;1.90;1.30;;;21.20;24.50;;;;;;2255273;61;20528;-61
2023/01/25 00:57:23;0.00;0.00;0.62;0.00;0.00;0.62;1.60;1.00;;;21.20;24.50;;;;;;2254871;61;20475;-57
2023/01/25 01:00:11;0.00;0.00;0.62;0.00;0.00;0.62;1.70;1.20;;;21.20;24.50;;;;;;2258475;61;20828;-58
2023/01/25 01:02:57;0.00;0.00;0.62;0.00;0.00;0.62;1.60;1.10;;;21.20;24.60;;;;;;2252826;61;20423;-63
2023/01/25 01:05:42;0.00;0.00;0.62;0.00;0.00;0.62;1.80;1.23;;;21.20;24.60;;;;;;2258841;61;20921;-55
2023/01/25 01:08:27;0.00;0.00;0.62;0.00;0.00;0.62;1.60;1.30;;;21.20;24.60;;;;;;2255266;61;20708;-59
2023/01/25 01:11:12;0.00;0.00;0.62;0.00;0.00;0.62;1.50;1.20;;;21.20;24.60;;;;;;2258423;61;20365;-62
2023/01/25 01:13:58;0.00;0.00;0.62;0.00;0.00;0.62;1.50;1.00;;;21.20;24.60;;;;;;2250131;61;20364;-61
2023/01/25 01:16:43;0.00;0.00;0.62;0.00;0.00;0.62;1.50;1.00;;;21.20;24.60;;;;;;2255198;61;20360;-58
2023/01/25 01:19:29;0.00;0.00;0.62;0.00;0.00;0.62;1.50;1.00;;;21.20;24.60;;;;;;2258151;61;20391;-60
2023/01/25 01:22:14;0.00;0.00;0.62;0.00;0.00;0.62;1.60;0.97;;;21.20;24.60;;;;;;2258387;61;20414;-62
2023/01/25 01:24:59;0.00;0.00;0.62;0.00;0.00;0.62;2.40;1.87;;;21.20;24.60;;;;;;2258861;61;20480;-57
2023/01/25 01:27:44;0.00;0.00;0.62;0.00;0.00;0.62;1.53;0.93;;;21.20;24.60;;;;;;2258081;61;21075;-59
2023/01/25 01:30:28;0.00;0.00;0.62;0.00;0.00;0.62;1.53;0.90;;;21.20;24.60;;;;;;2252838;61;20432;-57
2023/01/25 01:33:13;0.00;0.00;0.62;0.00;0.00;0.62;1.50;1.00;;;21.20;24.60;;;;;;2255409;61;20388;-61
2023/01/25 01:36:06;0.00;0.00;0.62;0.00;0.00;0.62;1.57;0.87;;;21.20;24.60;;;;;;2255388;61;20435;-62
2023/01/25 01:38:51;0.00;0.00;0.62;0.00;0.00;0.62;1.70;1.17;;;21.20;24.70;;;;;;2258699;61;20388;-60
2023/01/25 01:41:37;0.00;0.00;0.62;0.00;0.00;0.62;1.67;1.07;;;21.20;24.70;;;;;;2255130;61;20411;-61
2023/01/25 01:44:47;0.00;0.00;0.62;0.00;0.00;0.62;1.63;0.90;;;21.20;24.80;;;;;;2255101;61;20372;-59
2023/01/25 01:47:40;0.00;0.00;0.62;0.00;0.00;0.62;1.50;0.97;;;21.20;24.90;;;;;;2255148;61;20380;-60
2023/01/25 01:50:25;0.00;0.00;0.62;0.00;0.00;0.62;2.00;1.60;;;21.20;24.90;;;;;;2255064;61;20369;-60
2023/01/25 01:53:13;0.00;0.00;0.62;0.00;0.00;0.62;3.97;1.10;;;21.20;24.80;;;;;;2255206;61;21017;-59
2023/01/25 01:56:02;0.00;0.00;0.62;0.00;0.00;0.62;1.77;1.27;;;21.20;24.80;;;;;;2255203;61;20396;-60
2023/01/25 01:58:50;0.00;0.00;0.62;0.00;0.00;0.62;2.63;1.83;;;21.20;24.80;;;;;;2257043;61;20365;-59
2023/01/25 02:01:35;0.00;0.00;0.62;0.00;0.00;0.62;2.63;1.90;;;21.20;24.70;;;;;;2256917;61;20369;-58
2023/01/25 02:04:23;0.00;0.00;0.62;0.00;0.00;0.62;2.10;1.60;;;21.20;24.60;;;;;;2255746;61;20391;-60
2023/01/25 02:07:16;0.00;0.00;0.62;0.00;0.00;0.62;3.03;2.60;;;21.20;24.50;;;;;;2255945;61;20385;-62
2023/01/25 02:10:09;0.00;0.00;0.62;0.00;0.00;0.62;3.70;3.23;;;21.20;24.40;;;;;;2256403;61;20431;-63
2023/01/25 02:12:55;0.00;0.00;0.62;0.00;0.00;0.62;3.13;2.43;;;21.10;24.00;;;;;;2256935;61;20439;-62
2023/01/25 02:15:44;0.00;0.00;0.62;0.00;0.00;0.62;3.33;3.00;;;21.10;24.10;;;;;;2256332;61;20468;-64
2023/01/25 02:18:30;0.00;0.00;0.62;0.00;0.00;0.62;4.30;3.33;;;21.10;24.10;;;;;;2253475;61;20557;-58
2023/01/25 02:21:15;0.00;0.00;0.62;0.00;0.00;0.62;3.30;2.97;;;21.10;24.10;;;;;;2257088;61;20958;-58
2023/01/25 02:24:06;0.00;0.00;0.62;0.00;0.00;0.62;3.67;3.33;;;21.00;24.00;;;;;;2260068;61;20416;-60
2023/01/25 02:26:53;0.00;0.00;0.62;0.00;0.00;0.62;3.90;3.40;;;21.00;24.00;;;;;;2259150;61;20439;-63
2023/01/25 02:29:38;0.00;0.00;0.62;0.00;0.00;0.62;4.37;3.97;;;21.00;23.90;;;;;;2256327;61;20411;-59
2023/01/25 02:32:23;0.00;0.00;0.62;0.00;0.00;0.62;5.50;4.40;;;21.00;23.90;;;;;;2259447;61;20416;-58
2023/01/25 02:35:18;0.00;0.00;0.62;0.00;0.00;0.62;5.00;3.97;;;21.00;23.80;;;;;;2256728;61;20385;-61
2023/01/25 02:38:05;0.00;0.00;0.62;0.00;0.00;0.62;5.27;4.40;;;21.00;23.70;;;;;;2256013;61;20408;-59
2023/01/25 02:40:54;0.00;0.00;0.62;0.00;0.00;0.62;4.53;4.13;;;20.90;23.70;;;;;;2255979;61;20884;-56
2023/01/25 02:43:42;0.00;0.00;0.62;0.00;0.00;0.62;6.40;5.27;;;20.90;23.70;;;;;;2256349;61;20417;-57
2023/01/25 02:46:30;0.00;0.00;0.62;0.00;0.00;0.62;6.17;4.17;;;20.90;23.60;;;;;;2253412;61;20411;-57
2023/01/25 02:49:17;0.00;0.00;0.62;0.00;0.00;0.62;5.83;4.80;;;20.80;23.60;;;;;;2256457;61;20389;-56
2023/01/25 02:52:03;0.00;0.00;0.62;0.00;0.00;0.62;4.80;4.37;;;20.80;23.50;;;;;;2256541;61;20392;-61
2023/01/25 02:54:48;0.00;0.00;0.62;0.00;0.00;0.62;5.47;4.57;;;20.80;23.50;;;;;;2258813;61;20380;-58
2023/01/25 02:57:32;0.00;0.00;0.62;0.00;0.00;0.62;6.13;5.13;;;20.80;23.50;;;;;;2259874;61;20420;-56
2023/01/25 03:00:19;0.00;0.00;0.62;0.00;0.00;0.62;5.30;4.80;;;20.80;23.50;;;;;;2256180;61;20406;-59
2023/01/25 03:03:04;0.00;0.00;0.62;0.00;0.00;0.62;5.27;4.70;;;20.70;23.30;;;;;;2256107;61;20523;-60
2023/01/25 03:05:49;0.00;0.00;0.62;0.00;0.00;0.62;6.13;5.37;;;20.70;23.30;;;;;;2706123;45;20384;-60
2023/01/25 03:08:34;0.00;0.00;0.62;0.00;0.00;0.62;5.80;5.20;;;20.70;23.30;;;;;;2259871;61;20536;-56
2023/01/25 03:11:19;0.00;0.00;0.62;0.00;0.00;0.62;5.20;4.70;;;20.70;23.30;;;;;;2256068;61;20388;-60
2023/01/25 03:14:04;0.00;0.00;0.62;0.00;0.00;0.62;5.10;4.60;;;20.70;23.30;;;;;;2256146;61;20432;-59
2023/01/25 03:16:50;0.00;0.00;0.62;0.00;0.00;0.62;6.07;5.43;;;20.70;23.30;;;;;;2256269;61;20357;-65
2023/01/25 03:19:38;0.00;0.00;0.62;0.00;0.00;0.62;5.90;4.70;;;20.60;23.00;;;;;;2256998;61;20423;-63
2023/01/25 03:22:23;0.00;0.00;0.62;0.00;0.00;0.62;5.47;4.30;;;20.60;23.10;;;;;;2256006;61;20392;-60
2023/01/25 03:25:09;0.00;0.00;0.62;0.00;0.00;0.62;5.50;4.87;;;20.60;23.00;;;;;;2255628;61;20388;-60
2023/01/25 03:27:57;0.00;0.00;0.62;0.00;0.00;0.62;5.23;4.50;;;20.50;23.00;;;;;;2255922;61;20404;-60
2023/01/25 03:30:42;0.00;0.00;0.62;0.00;0.00;0.62;5.97;4.93;;;20.50;23.00;;;;;;2256609;61;20500;-60
2023/01/25 03:33:29;0.00;0.00;0.62;0.00;0.00;0.62;5.17;4.67;;;20.40;22.60;;;;;;2259144;61;20365;-58
2023/01/25 03:36:14;0.00;0.00;0.62;0.00;0.00;0.62;4.40;4.00;;;20.40;22.80;;;;;;2258854;61;20420;-61
2023/01/25 03:38:59;0.00;0.00;0.62;0.00;0.00;0.62;4.77;4.27;;;20.40;23.00;;;;;;2256361;61;20407;-59
2023/01/25 03:41:45;0.00;0.00;0.62;0.00;0.00;0.62;4.20;3.67;;;20.40;23.00;;;;;;2260031;61;20389;-58
2023/01/25 03:44:32;0.00;0.00;0.62;0.00;0.00;0.62;6.13;4.70;;;20.40;23.00;;;;;;2256085;61;20408;-58
2023/01/25 03:47:17;0.00;0.00;0.62;0.00;0.00;0.62;4.60;4.10;;;20.40;22.90;;;;;;2255326;61;20388;-58
2023/01/25 03:50:04;0.00;0.00;0.62;0.00;0.00;0.62;4.30;3.73;;;20.40;22.90;;;;;;2259779;61;20384;-58
2023/01/25 03:52:57;0.00;0.00;0.62;0.00;0.00;0.62;4.73;4.00;;;20.40;22.90;;;;;;2257059;61;20419;-59
2023/01/25 03:55:42;0.00;0.00;0.62;0.00;0.00;0.62;4.73;4.23;;;20.30;22.90;;;;;;2255912;61;20952;-58
2023/01/25 03:58:29;0.00;0.00;0.62;0.00;0.00;0.62;4.30;3.87;;;20.40;23.50;;;;;;2256288;61;20365;-62
2023/01/25 04:01:13;0.00;0.00;0.62;0.00;0.00;0.62;4.50;3.80;;;20.30;22.90;;;;;;2256406;61;20384;-58
2023/01/25 04:03:58;0.00;0.00;0.62;0.00;0.00;0.62;5.30;4.00;;;20.30;22.90;;;;;;2256581;61;20365;-66
2023/01/25 04:06:45;0.00;0.00;0.62;0.00;0.00;0.62;4.60;4.10;;;20.30;22.90;;;;;;2255879;61;20416;-59
2023/01/25 04:09:30;0.00;0.00;0.62;0.00;0.00;0.62;4.00;3.60;;;20.30;22.90;;;;;;2255840;61;20430;-59
2023/01/25 04:12:17;0.00;0.00;0.62;0.00;0.00;0.62;4.70;3.87;;;20.30;22.80;;;;;;2256413;61;20361;-60
2023/01/25 04:15:03;0.00;0.00;0.62;0.00;0.00;0.62;5.03;4.27;;;20.30;22.70;;;;;;2256648;61;20381;-57
2023/01/25 04:17:48;0.00;0.00;0.62;0.00;0.00;0.62;4.57;3.67;;;20.30;22.70;;;;;;2255866;61;20392;-58
2023/01/25 04:20:38;0.00;0.00;0.62;0.00;0.00;0.62;5.10;4.07;;;20.30;22.70;;;;;;2256103;61;20365;-60
2023/01/25 04:23:26;0.00;0.00;0.62;0.00;0.00;0.62;4.40;3.83;;;20.30;22.70;;;;;;2256202;61;20411;-59
2023/01/25 04:26:12;0.00;0.00;0.62;0.00;0.00;0.62;5.13;4.03;;;20.20;22.70;;;;;;2256157;61;20389;-59
2023/01/25 04:28:58;0.00;0.00;0.62;0.00;0.00;0.62;5.37;3.50;;;20.20;22.70;;;;;;2256202;61;20812;-61
2023/01/25 04:31:43;0.00;0.00;0.62;0.00;0.00;0.62;4.70;4.03;;;20.30;22.70;;;;;;2255876;61;20365;-59
2023/01/25 04:34:28;0.00;0.00;0.62;0.00;0.00;0.62;3.27;2.90;;;20.20;22.70;;;;;;2256638;61;20369;-60
2023/01/25 04:37:13;0.00;0.00;0.62;0.00;0.00;0.62;4.80;3.87;;;20.20;22.70;;;;;;2256102;61;20420;-60
2023/01/25 04:40:10;0.00;0.00;0.62;0.00;0.00;0.62;3.67;3.27;;;20.10;22.60;;;;;;2255655;61;20365;-58
2023/01/25 04:43:01;0.00;0.00;0.62;0.00;0.00;0.62;3.70;3.20;;;20.10;22.60;;;;;;2256269;61;20503;-63
2023/01/25 04:45:48;0.00;0.00;0.62;0.00;0.00;0.62;4.73;4.13;;;20.10;22.60;;;;;;2255431;61;20389;-59
2023/01/25 04:48:40;0.00;0.00;0.62;0.00;0.00;0.62;6.10;3.70;;;20.10;22.60;;;;;;2256536;61;20380;-58
2023/01/25 04:51:25;0.00;0.00;0.62;0.00;0.00;0.62;5.17;3.70;;;20.10;22.60;;;;;;2258980;61;20372;-63
2023/01/25 04:54:10;0.00;0.00;0.62;0.00;0.00;0.62;4.00;3.60;;;20.10;22.60;;;;;;2255472;61;20365;-61
2023/01/25 04:56:56;0.00;0.00;0.62;0.00;0.00;0.62;4.50;3.70;;;20.00;22.50;;;;;;2255483;61;20675;-58
2023/01/25 04:59:41;0.00;0.00;0.62;0.00;0.00;0.62;4.20;3.47;;;20.00;22.50;;;;;;2256393;61;20775;-61
2023/01/25 05:02:26;0.00;0.00;0.62;0.00;0.00;0.62;4.70;4.00;;;20.00;22.50;;;;;;2255508;61;20404;-55
2023/01/25 05:05:12;0.00;0.00;0.62;0.00;0.00;0.62;4.90;4.20;;;20.00;22.50;;;;;;2256044;61;20440;-58
2023/01/25 05:07:57;0.00;0.00;0.62;0.00;0.00;0.62;4.53;3.70;;;20.00;22.50;;;;;;2255295;61;20468;-56
2023/01/25 05:10:42;0.00;0.00;0.62;0.00;0.00;0.62;3.80;3.10;;;20.00;22.60;;;;;;2259584;61;20365;-58
2023/01/25 05:13:47;0.00;0.00;0.62;0.00;0.00;0.62;4.47;4.07;;;19.90;22.50;;;;;;2255726;61;20440;-58
2023/01/25 05:16:42;0.00;0.00;0.62;0.00;0.00;0.62;4.47;3.73;;;19.90;22.50;;;;;;2258695;61;20361;-61
2023/01/25 05:19:27;0.00;0.00;0.62;0.00;0.00;0.62;4.30;3.67;;;19.80;22.50;;;;;;2256025;61;20860;-61
2023/01/25 05:22:19;0.00;0.00;0.62;0.00;0.00;0.62;4.67;3.90;;;19.80;22.50;;;;;;2256027;61;20404;-60
2023/01/25 05:26:59;0.00;0.00;0.62;0.00;0.00;0.62;4.73;4.30;;;19.80;22.50;;;;;;2255957;61;20989;-61
2023/01/25 05:28:12;0.00;0.00;0.62;0.00;0.00;0.62;4.80;3.97;;;19.80;22.50;;;;;;2255288;61;20381;-58
2023/01/25 05:31:16;0.00;0.00;0.62;0.00;0.00;0.62;5.03;3.80;;;19.80;22.50;;;;;;2255419;61;20380;-59
2023/01/25 05:34:01;0.00;0.00;0.62;0.00;0.00;0.62;5.50;4.40;;;19.80;22.50;;;;;;2259715;61;20411;-61
2023/01/25 05:36:48;0.00;0.00;0.62;0.00;0.00;0.62;4.13;3.73;;;19.80;22.50;;;;;;2256721;61;20404;-60
2023/01/25 05:39:33;0.00;0.00;0.62;0.00;0.00;0.62;6.10;4.37;;;19.70;22.40;;;;;;2256777;61;20369;-60
2023/01/25 05:42:18;0.00;0.00;0.62;0.00;0.00;0.62;5.20;3.70;;;19.70;22.40;;;;;;2256629;61;20364;-61
2023/01/25 05:45:05;0.00;0.00;0.62;0.00;0.00;0.62;5.13;4.03;;;19.70;22.40;;;;;;2255651;61;20396;-57
2023/01/25 05:47:54;0.00;0.00;0.62;0.00;0.00;0.62;5.63;4.17;;;19.70;22.40;;;;;;2255939;61;20993;-57
2023/01/25 05:50:39;0.00;0.00;0.62;0.00;0.00;0.62;4.70;3.57;;;19.70;22.40;;;;;;2256085;61;20372;-56
2023/01/25 05:53:28;0.00;0.00;0.62;0.00;0.00;0.62;5.33;4.07;;;19.70;22.40;;;;;;2255664;61;20877;-61
2023/01/25 05:56:13;0.00;0.00;0.62;0.00;0.00;0.62;5.07;4.40;;;19.70;22.40;;;;;;2261699;61;20380;-62
2023/01/25 05:59:00;0.00;0.00;0.62;0.00;0.00;0.62;4.13;3.63;;;19.70;22.50;;;;;;2256046;61;20372;-61
2023/01/25 06:01:45;0.00;0.00;0.62;0.00;0.00;0.62;4.90;3.97;;;19.60;22.40;;;;;;2258865;61;20436;-60
2023/01/25 06:04:33;0.00;0.00;0.62;0.00;0.00;0.62;4.80;4.23;;;19.60;22.40;;;;;;2266141;58;20384;-61
2023/01/25 06:07:18;0.00;0.00;0.62;0.00;0.00;0.62;4.83;4.30;;;19.60;22.40;;;;;;2258242;61;20436;-60
2023/01/25 06:10:04;0.00;0.00;0.62;0.00;0.00;0.62;5.43;3.80;;;19.60;22.40;;;;;;2259002;61;20606;-61
2023/01/25 06:12:49;0.00;0.00;0.62;0.00;0.00;0.62;6.20;4.67;;;19.60;22.40;;;;;;2258769;61;20364;-58
2023/01/25 06:15:35;0.00;0.00;0.62;0.00;0.00;0.62;4.90;4.10;;;19.60;22.40;;;;;;2258487;61;20800;-62
2023/01/25 06:18:38;0.00;0.00;0.62;0.00;0.00;0.62;5.63;4.70;;;19.60;22.40;;;;;;2261933;61;20360;-62
2023/01/25 06:21:37;0.00;0.00;0.62;0.00;0.00;0.62;5.20;4.00;;;19.60;22.40;;;;;;2258450;61;20873;-58
2023/01/25 06:24:22;0.00;0.00;0.62;0.00;0.00;0.62;6.00;4.43;;;19.50;22.40;;;;;;2262213;61;20364;-60
2023/01/25 06:27:07;0.00;0.00;0.62;0.00;0.00;0.62;5.53;4.50;;;19.50;22.40;;;;;;2261538;61;20469;-59
2023/01/25 06:29:52;0.00;0.00;0.62;0.00;0.00;0.62;6.13;4.60;;;19.50;22.40;;;;;;2258472;61;20353;-60
2023/01/25 06:32:39;0.00;0.00;0.62;0.00;0.00;0.62;5.67;4.23;;;19.50;22.50;;;;;;2262062;61;20403;-58
2023/01/25 06:35:24;0.00;0.00;0.62;0.00;0.00;0.62;6.10;4.77;;;19.50;22.50;;;;;;2261678;61;20506;-61
2023/01/25 06:38:11;0.00;0.00;0.62;0.00;0.00;0.62;6.30;5.13;;;19.50;22.50;;;;;;2261335;61;20412;-58
2023/01/25 06:40:59;0.00;0.00;0.62;0.00;0.00;0.62;6.17;5.20;;;19.50;22.50;;;;;;2261821;61;20849;-61
2023/01/25 06:43:44;0.00;0.00;0.62;0.00;0.00;0.62;7.00;5.20;;;19.40;22.50;;;;;;2261573;61;20531;-59
2023/01/25 06:46:31;0.00;0.00;0.62;0.00;0.00;0.62;6.20;4.73;;;19.40;22.50;;;;;;2258782;61;20435;-60
2023/01/25 06:49:16;0.00;0.00;0.62;0.00;0.00;0.62;8.10;5.90;;;19.40;22.50;;;;;;2261630;61;20897;-56
2023/01/25 06:52:01;0.00;0.00;0.62;0.00;0.00;0.62;6.40;5.07;;;19.40;22.40;;;;;;2261850;61;20369;-59
2023/01/25 06:54:47;0.00;0.00;0.62;0.00;0.00;0.62;6.70;5.03;;;19.30;22.40;;;;;;2258496;61;20924;-62
2023/01/25 06:57:33;0.00;0.00;0.62;0.00;0.00;0.62;8.30;5.73;;;19.30;22.40;;;;;;2258552;61;20376;-61
2023/01/25 07:00:18;0.00;0.00;0.62;0.00;0.00;0.62;5.07;4.30;;;19.30;22.40;;;;;;2261740;61;20369;-60
2023/01/25 07:03:03;0.00;0.00;0.62;0.00;0.00;0.62;6.77;5.20;;;19.20;22.40;;;;;;2261729;61;20445;-54
2023/01/25 07:05:48;0.00;0.00;0.62;0.00;0.00;0.62;5.63;4.63;;;19.30;22.50;;;;;;2261815;61;20656;-58
2023/01/25 07:08:34;0.00;0.00;0.62;0.00;0.00;0.62;4.97;4.30;;;19.20;22.40;;;;;;2262004;61;20419;-57
2023/01/25 07:11:21;0.00;0.00;0.62;0.00;0.00;0.62;5.33;4.43;;;19.20;22.50;;;;;;2261404;61;20791;-62
2023/01/25 07:14:06;0.00;0.00;0.62;0.00;0.00;0.62;8.30;4.50;;;19.20;22.50;;;;;;2259699;61;20408;-61
2023/01/25 07:16:50;0.00;0.00;0.62;0.00;0.00;0.62;5.30;4.63;;;19.20;22.50;;;;;;2259311;61;20364;-58
2023/01/25 07:19:35;0.00;0.00;0.62;0.00;0.00;0.62;6.10;4.87;;;19.20;22.50;;;;;;2259063;61;20633;-59
2023/01/25 07:22:19;0.00;0.00;0.62;0.00;0.00;0.62;7.90;5.60;;;19.20;22.60;;;;;;2259206;61;20384;-58
2023/01/25 07:25:05;0.00;0.00;0.62;0.00;0.00;0.62;6.30;5.03;;;19.20;22.60;;;;;;2259349;61;20388;-56
2023/01/25 07:27:51;0.00;0.00;0.62;0.00;0.00;0.62;6.00;4.80;;;19.20;22.60;;;;;;2259425;61;20440;-56
2023/01/25 07:30:36;0.00;0.00;0.62;0.00;0.00;0.62;6.00;4.97;;;19.20;22.60;;;;;;2259754;61;20913;-57
2023/01/25 07:33:21;0.00;0.00;0.62;0.00;0.00;0.62;6.10;5.47;;;19.20;22.60;;;;;;2259318;61;20869;-57
2023/01/25 07:36:09;0.00;0.00;0.62;0.00;0.00;0.62;6.30;5.33;;;19.20;22.60;;;;;;2258789;61;20487;-56
2023/01/25 07:38:56;0.00;0.00;0.62;0.00;0.00;0.62;5.50;4.97;;;19.20;22.60;;;;;;2259412;61;20831;-59
2023/01/25 07:41:40;0.00;0.00;0.62;0.00;0.00;0.62;6.60;5.03;;;19.20;22.70;;;;;;2259182;61;20962;-54
2023/01/25 07:44:31;0.00;0.00;0.62;0.00;0.00;0.62;6.67;5.50;;;19.20;22.70;;;;;;2255425;61;20390;-59
2023/01/25 07:47:26;0.00;0.00;0.62;0.00;0.00;0.62;6.53;5.53;;;19.20;22.70;;;;;;2255505;61;20396;-60
2023/01/25 07:50:12;0.00;0.00;0.62;0.00;0.00;0.62;6.83;4.97;;;19.10;22.70;;;;;;2259546;61;20376;-61
2023/01/25 07:52:58;0.00;0.00;0.62;0.00;0.00;0.62;9.07;5.10;;;19.10;22.70;;;;;;2259188;61;20383;-61
2023/01/25 07:55:43;0.00;0.00;0.62;0.00;0.00;0.62;6.00;4.80;;;19.10;22.80;;;;;;2257847;61;20408;-60
2023/01/25 07:58:27;0.00;0.00;0.62;0.00;0.00;0.62;7.57;4.90;;;19.10;22.80;;;;;;2259279;61;20820;-59
2023/01/25 08:01:16;0.00;0.00;0.62;0.00;0.00;0.62;5.40;4.20;;;19.10;22.80;;;;;;2259628;61;20360;-62
2023/01/25 08:04:03;0.00;0.00;0.62;0.00;0.00;0.62;7.03;5.07;;;19.10;22.90;;;;;;2259083;61;20394;-61
2023/01/25 08:06:48;0.00;0.00;0.62;0.00;0.00;0.62;6.03;5.00;;;19.10;22.90;;;;;;2258227;61;20486;-58
2023/01/25 08:09:33;0.00;0.00;0.62;0.00;0.00;0.62;5.67;4.40;;;19.10;22.90;;;;;;2259135;61;20605;-60
2023/01/25 08:12:18;0.00;0.00;0.62;0.00;0.00;0.62;6.23;5.30;;;19.10;22.90;;;;;;2258951;61;20416;-59
2023/01/25 08:15:04;0.00;0.00;0.62;0.00;0.00;0.62;5.50;4.17;;;19.10;22.90;;;;;;2259247;61;20387;-56
2023/01/25 08:17:51;0.00;0.00;0.62;0.00;0.00;0.62;6.57;4.73;;;19.10;22.90;;;;;;2258619;61;20411;-63
2023/01/25 08:20:36;0.00;0.00;0.62;0.00;0.00;0.62;5.90;4.57;;;19.10;22.90;;;;;;2259187;61;20368;-60
2023/01/25 08:23:21;0.00;0.00;0.62;0.00;0.00;0.62;5.53;5.00;;;19.10;22.90;;;;;;2259249;61;20368;-62
2023/01/25 08:26:08;0.00;0.00;0.62;0.00;0.00;0.62;5.80;5.17;;;19.10;22.90;;;;;;2258494;61;20396;-54
2023/01/25 08:28:53;0.00;0.00;0.62;0.00;0.00;0.62;5.50;4.50;;;19.10;22.90;;;;;;2257285;61;20873;-61
2023/01/25 08:31:42;0.00;0.00;0.62;0.00;0.00;0.62;6.40;4.97;;;19.10;23.00;;;;;;2259019;61;20445;-63
2023/01/25 08:34:30;0.00;0.00;0.62;0.00;0.00;0.62;6.03;4.40;;;19.10;23.00;;;;;;2259256;61;20365;-61
2023/01/25 08:37:15;0.00;0.00;0.62;0.00;0.00;0.62;4.63;4.13;;;19.10;23.00;;;;;;2258976;61;20397;-60
2023/01/25 08:40:00;0.00;0.00;0.62;0.00;0.00;0.62;5.00;4.30;;;19.10;23.00;;;;;;2259035;61;20365;-60
2023/01/25 08:42:45;0.00;0.00;0.62;0.00;0.00;0.62;6.07;4.47;;;19.10;23.00;;;;;;2259227;61;20493;-59
2023/01/25 08:45:33;0.00;0.00;0.62;0.00;0.00;0.62;6.20;4.90;;;19.10;23.10;;;;;;2259185;61;20385;-59
2023/01/25 08:48:18;0.00;0.00;0.62;0.00;0.00;0.62;5.83;4.83;;;19.10;23.00;;;;;;2258703;61;20419;-55
2023/01/25 08:51:07;0.00;0.00;0.62;0.00;0.00;0.62;6.23;5.20;;;19.10;23.00;;;;;;2255568;61;20376;-58
2023/01/25 08:53:53;0.00;0.00;0.62;0.00;0.00;0.62;5.20;4.43;;;19.10;23.00;;;;;;2255688;61;20920;-57
2023/01/25 08:56:39;0.00;0.00;0.62;0.00;0.00;0.62;5.10;4.60;;;19.10;23.00;;;;;;2259559;61;20406;-61
2023/01/25 08:59:24;0.00;0.00;0.62;0.00;0.00;0.62;6.30;4.50;;;19.10;23.00;;;;;;2255903;61;20384;-62
2023/01/25 09:02:11;0.00;0.00;0.62;0.00;0.00;0.62;6.20;4.63;;;19.10;23.00;;;;;;2258784;61;20368;-58
2023/01/25 09:04:56;0.00;0.00;0.62;0.00;0.00;0.62;4.93;3.87;;;19.10;23.00;;;;;;2256520;61;20474;-59
2023/01/25 09:07:44;0.00;0.00;0.62;0.00;0.00;0.62;5.30;4.00;;;19.10;23.10;;;;;;2259144;61;20937;-58
2023/01/25 09:10:29;0.00;0.00;0.62;0.00;0.00;0.62;7.53;4.60;;;19.20;23.20;;;;;;2259058;61;21056;-62
2023/01/25 09:13:14;0.00;0.00;0.62;0.00;0.00;0.62;5.80;4.30;;;19.20;23.20;;;;;;2255586;61;20775;-62
2023/01/25 09:15:59;0.00;0.00;0.62;0.00;0.00;0.62;5.13;3.83;;;19.20;23.30;;;;;;2258881;61;20441;-61
2023/01/25 09:18:46;0.00;0.00;0.62;0.00;0.00;0.62;6.73;4.10;;;19.20;23.30;;;;;;2255911;61;20372;-62
2023/01/25 09:21:32;0.00;0.00;0.62;0.00;0.00;0.62;4.77;4.13;;;19.20;23.30;;;;;;2259158;61;20376;-63
2023/01/25 09:24:19;0.00;0.00;0.62;0.00;0.00;0.62;6.53;3.97;;;19.20;23.40;;;;;;2259144;61;20380;-62
2023/01/25 09:27:04;0.00;0.00;0.62;0.00;0.00;0.62;5.47;4.17;;;19.20;23.40;;;;;;2258777;61;20403;-62
2023/01/25 09:29:49;0.00;0.00;0.62;0.00;0.00;0.62;4.80;4.00;;;19.20;23.40;;;;;;2259697;61;20384;-62
2023/01/25 09:32:34;0.00;0.00;0.62;0.00;0.00;0.62;4.70;3.53;;;19.20;23.40;;;;;;2254181;61;20345;-64
2023/01/25 09:35:19;0.00;0.00;0.62;0.00;0.00;0.62;4.90;4.20;;;19.30;23.50;;;;;;2258377;61;20388;-64
2023/01/25 09:38:04;0.00;0.00;0.62;0.00;0.00;0.62;4.87;3.93;;;19.30;23.60;;;;;;2255825;61;20438;-62
2023/01/25 09:41:07;0.00;0.00;0.62;0.00;0.00;0.62;5.43;4.43;;;19.30;23.60;;;;;;2259588;61;21142;-62
2023/01/25 09:44:11;0.00;0.00;0.62;0.00;0.00;0.62;3.67;3.30;;;19.30;23.60;;;;;;2259729;61;20368;-64
2023/01/25 09:47:00;0.00;0.00;0.62;0.00;0.00;0.62;4.00;3.20;;;19.30;23.60;;;;;;2259187;61;20408;-62
2023/01/25 09:50:09;0.00;0.00;0.62;0.00;0.00;0.62;5.30;3.90;;;19.30;23.60;;;;;;2259455;61;20408;-63
2023/01/25 09:53:26;0.00;0.00;0.62;0.00;0.00;0.62;4.30;3.57;;;19.30;23.60;;;;;;2258830;61;20380;-64
2023/01/25 09:56:19;0.00;0.00;0.62;0.00;0.00;0.62;3.40;3.07;;;19.30;23.60;;;;;;2255577;61;20475;-65
2023/01/25 09:59:12;0.00;0.00;0.62;0.00;0.00;0.62;5.90;3.53;;;19.40;23.70;;;;;;2258061;61;20408;-65
2023/01/25 10:02:03;0.00;0.00;0.62;0.00;0.00;0.62;4.37;3.03;;;19.40;23.80;;;;;;2259481;61;20416;-64
2023/01/25 10:04:52;0.00;0.00;0.62;0.00;0.00;0.62;3.40;2.90;;;19.40;23.80;;;;;;2258722;61;20430;-61
2023/01/25 10:07:53;0.00;0.00;0.62;0.00;0.00;0.62;3.73;3.30;;;19.40;23.80;;;;;;2258972;61;20797;-64
2023/01/25 10:10:41;0.00;0.00;0.62;0.00;0.00;0.62;3.33;2.90;;;19.40;23.80;;;;;;2259305;61;20689;-65
2023/01/25 10:13:30;0.00;0.00;0.62;0.00;0.00;0.62;4.47;3.30;;;19.50;23.90;;;;;;2259403;61;20423;-65
2023/01/25 10:16:23;0.00;0.00;0.62;0.00;0.00;0.62;3.80;3.13;;;19.50;23.90;;;;;;2258616;61;20461;-62
2023/01/25 10:19:22;0.00;0.00;0.62;0.00;0.00;0.62;4.70;3.40;;;19.50;23.90;;;;;;2256350;61;20901;-63
2023/01/25 10:22:18;0.00;0.00;0.62;0.00;0.00;0.62;4.13;2.80;;;19.50;23.90;;;;;;2260340;61;20404;-65
2023/01/25 10:25:31;0.00;0.00;0.62;0.00;0.00;0.62;4.50;3.23;;;19.50;23.90;;;;;;2260419;61;20403;-66
2023/01/25 10:28:35;0.00;0.00;0.62;0.00;0.00;0.62;4.50;3.20;;;19.60;24.00;;;;;;2260536;61;20789;-65
2023/01/25 10:31:31;0.00;0.00;0.62;0.00;0.00;0.62;3.90;3.10;;;19.60;23.90;;;;;;2256622;61;20438;-59
2023/01/25 10:34:21;0.00;0.00;0.62;0.00;0.00;0.62;4.23;3.23;;;19.60;24.00;;;;;;2259246;61;20828;-61
2023/01/25 10:37:14;0.00;0.00;0.62;0.00;0.00;0.62;3.53;2.80;;;19.60;24.00;;;;;;2260000;61;20365;-63
2023/01/25 10:40:12;0.00;0.00;0.62;0.00;0.00;0.62;4.80;2.90;;;19.60;24.00;;;;;;2257038;61;20365;-60
2023/01/25 10:43:04;0.00;0.00;0.62;0.00;0.00;0.62;3.30;2.93;;;19.60;24.00;;;;;;2256850;61;20372;-66
2023/01/25 10:45:51;0.00;0.00;0.62;0.00;0.00;0.62;6.03;3.60;;;19.70;24.00;;;;;;2259833;61;20389;-62
2023/01/25 10:48:37;0.00;0.00;0.62;0.00;0.00;0.62;4.90;4.40;;;19.70;24.00;;;;;;2259790;61;20377;-63
2023/01/25 10:51:30;0.00;0.00;0.62;0.00;0.00;0.62;4.70;3.80;;;19.70;24.10;;;;;;2256847;61;20473;-66
2023/01/25 10:54:16;0.00;0.00;0.62;0.00;0.00;0.62;5.83;3.97;;;19.70;24.30;;;;;;2260228;61;20366;-63
2023/01/25 10:57:01;0.00;0.00;0.62;0.00;0.00;0.62;5.60;4.00;;;19.70;24.00;;;;;;2256021;61;20345;-64
2023/01/25 10:59:49;0.00;0.00;0.62;0.00;0.00;0.62;4.30;3.77;;;19.80;24.10;;;;;;2260042;61;20763;-65
2023/01/25 11:02:45;0.00;0.00;0.62;0.00;0.00;0.62;5.40;3.83;;;19.70;24.00;;;;;;2256997;61;20365;-65